Aviation Digital Data Service (ADDS)

Output produced by METARs form (1511 UTC 20 March 2019)
found at http://www.aviationweather.gov/metar/data/
 
METAR text: LTAI 201450Z 19004KT 9999 FEW030 BKN100 18/12 Q1016 NOSIG RMK RWY18C 15004KT 110V170 RWY36R 15004KT 120V180 RWY18L 17004KT 140V200
Conditions at: LTAI (ANTALYA (CIV/MIL, TR) observed 1450 UTC 20 March 2019
Temperature: 18.0°C (64°F)
Dewpoint: 12.0°C (54°F) [RH = 68%]
Pressure (altimeter): 30.00 inches Hg (1016.0 mb)
Winds: from the S (190 degrees) at 5 MPH (4 knots; 2.1 m/s)
Visibility: 6 or more miles (10+ km)
Ceiling: 10000 feet AGL
Clouds: few clouds at 3000 feet AGL
broken clouds at 10000 feet AGL
Weather: no significant weather observed at this time

METAR text: LTAI 201420Z 16005KT 9999 FEW030 BKN100 18/10 Q1016 NOSIG RMK RWY18C 15005KT 120V180 RWY36R 17005KT RWY18L 15005KT 130V190
Conditions at: LTAI (ANTALYA (CIV/MIL, TR) observed 1420 UTC 20 March 2019
Temperature: 18.0°C (64°F)
Dewpoint: 10.0°C (50°F) [RH = 59%]
Pressure (altimeter): 30.00 inches Hg (1016.0 mb)
Winds: from the SSE (160 degrees) at 6 MPH (5 knots; 2.6 m/s)
Visibility: 6 or more miles (10+ km)
Ceiling: 10000 feet AGL
Clouds: few clouds at 3000 feet AGL
broken clouds at 10000 feet AGL
Weather: no significant weather observed at this time

METAR text: LTAI 201350Z 18005KT 140V200 9999 FEW030 BKN100 19/09 Q1016 NOSIG RMK RWY18C 17005KT RWY36R 16005KT RWY18L 17005KT 130V200
Conditions at: LTAI (ANTALYA (CIV/MIL, TR) observed 1350 UTC 20 March 2019
Temperature: 19.0°C (66°F)
Dewpoint: 9.0°C (48°F) [RH = 52%]
Pressure (altimeter): 30.00 inches Hg (1016.0 mb)
Winds: from the S (180 degrees) at 6 MPH (5 knots; 2.6 m/s)
Visibility: 6 or more miles (10+ km)
Ceiling: 10000 feet AGL
Clouds: few clouds at 3000 feet AGL
broken clouds at 10000 feet AGL
Weather: no significant weather observed at this time

METAR text: LTAI 201320Z 16004KT 140V200 9999 FEW030 BKN100 19/09 Q1016 NOSIG RMK RWY18C 16006KT 130V190 RWY36R 16005KT 120V190 RWY18L 18005KT
Conditions at: LTAI (ANTALYA (CIV/MIL, TR) observed 1320 UTC 20 March 2019
Temperature: 19.0°C (66°F)
Dewpoint: 9.0°C (48°F) [RH = 52%]
Pressure (altimeter): 30.00 inches Hg (1016.0 mb)
Winds: from the SSE (160 degrees) at 5 MPH (4 knots; 2.1 m/s)
Visibility: 6 or more miles (10+ km)
Ceiling: 10000 feet AGL
Clouds: few clouds at 3000 feet AGL
broken clouds at 10000 feet AGL
Weather: no significant weather observed at this time

METAR text: LTAI 201250Z 17005KT 130V200 9999 FEW030 BKN100 19/09 Q1017 NOSIG RMK RWY18C 16006KT 130V190 RWY36R 16005KT 130V200 RWY18L 17005KT
Conditions at: LTAI (ANTALYA (CIV/MIL, TR) observed 1250 UTC 20 March 2019
Temperature: 19.0°C (66°F)
Dewpoint: 9.0°C (48°F) [RH = 52%]
Pressure (altimeter): 30.03 inches Hg (1017.0 mb)
Winds: from the S (170 degrees) at 6 MPH (5 knots; 2.6 m/s)
Visibility: 6 or more miles (10+ km)
Ceiling: 10000 feet AGL
Clouds: few clouds at 3000 feet AGL
broken clouds at 10000 feet AGL
Weather: no significant weather observed at this time

METAR text: LTAI 201220Z 16007KT 9999 FEW030 BKN100 18/11 Q1017 NOSIG RMK RWY18C 17005KT RWY36R 18005KT RWY18L 19006KT 140V240
Conditions at: LTAI (ANTALYA (CIV/MIL, TR) observed 1220 UTC 20 March 2019
Temperature: 18.0°C (64°F)
Dewpoint: 11.0°C (52°F) [RH = 64%]
Pressure (altimeter): 30.03 inches Hg (1017.0 mb)
Winds: from the SSE (160 degrees) at 8 MPH (7 knots; 3.6 m/s)
Visibility: 6 or more miles (10+ km)
Ceiling: 10000 feet AGL
Clouds: few clouds at 3000 feet AGL
broken clouds at 10000 feet AGL
Weather: no significant weather observed at this time

METAR text: LTAI 201150Z VRB04KT 9999 FEW030 BKN100 19/12 Q1017 NOSIG RMK RWY18C 20004KT 140V260 RWY36R 16005KT 120V220 RWY18L VRB04KT
Conditions at: LTAI (ANTALYA (CIV/MIL, TR) observed 1150 UTC 20 March 2019
Temperature: 19.0°C (66°F)
Dewpoint: 12.0°C (54°F) [RH = 64%]
Pressure (altimeter): 30.03 inches Hg (1017.0 mb)
Winds: variable direction winds at 5 MPH (4 knots; 2.1 m/s)
Visibility: 6 or more miles (10+ km)
Ceiling: 10000 feet AGL
Clouds: few clouds at 3000 feet AGL
broken clouds at 10000 feet AGL
Weather: no significant weather observed at this time

METAR text: LTAI 201120Z 20005KT 9999 FEW030 BKN100 19/12 Q1017 NOSIG RMK RWY18C 19005KT 150V250 RWY36R 17004KT 080V240 RWY18L 19005KT 150V230
Conditions at: LTAI (ANTALYA (CIV/MIL, TR) observed 1120 UTC 20 March 2019
Temperature: 19.0°C (66°F)
Dewpoint: 12.0°C (54°F) [RH = 64%]
Pressure (altimeter): 30.03 inches Hg (1017.0 mb)
Winds: from the SSW (200 degrees) at 6 MPH (5 knots; 2.6 m/s)
Visibility: 6 or more miles (10+ km)
Ceiling: 10000 feet AGL
Clouds: few clouds at 3000 feet AGL
broken clouds at 10000 feet AGL
Weather: no significant weather observed at this time

METAR text: LTAI 201050Z 20005KT 150V220 9999 FEW030 BKN100 18/13 Q1018 NOSIG RMK RWY18C 20004KT 160V240 RWY36R 20005KT 170V230 RWY18L 17005KT 110V210
Conditions at: LTAI (ANTALYA (CIV/MIL, TR) observed 1050 UTC 20 March 2019
Temperature: 18.0°C (64°F)
Dewpoint: 13.0°C (55°F) [RH = 73%]
Pressure (altimeter): 30.06 inches Hg (1018.0 mb)
Winds: from the SSW (200 degrees) at 6 MPH (5 knots; 2.6 m/s)
Visibility: 6 or more miles (10+ km)
Ceiling: 10000 feet AGL
Clouds: few clouds at 3000 feet AGL
broken clouds at 10000 feet AGL
Weather: no significant weather observed at this time

METAR text: LTAI 201020Z 23004KT 180V280 9999 FEW030 BKN180 18/12 Q1018 NOSIG RMK RWY18C VRB01KT RWY36R 19004KT 100V230 RWY18L 19003KT 130V240
Conditions at: LTAI (ANTALYA (CIV/MIL, TR) observed 1020 UTC 20 March 2019
Temperature: 18.0°C (64°F)
Dewpoint: 12.0°C (54°F) [RH = 68%]
Pressure (altimeter): 30.06 inches Hg (1018.0 mb)
Winds: from the SW (230 degrees) at 5 MPH (4 knots; 2.1 m/s)
Visibility: 6 or more miles (10+ km)
Ceiling: 18000 feet AGL
Clouds: few clouds at 3000 feet AGL
broken clouds at 18000 feet AGL
Weather: no significant weather observed at this time

METAR text: LTAI 200950Z VRB03KT 9999 SCT030 BKN180 18/12 Q1018 NOSIG RMK RWY18C VRB01KT RWY36R VRB04KT RWY18L VRB02KT
Conditions at: LTAI (ANTALYA (CIV/MIL, TR) observed 0950 UTC 20 March 2019
Temperature: 18.0°C (64°F)
Dewpoint: 12.0°C (54°F) [RH = 68%]
Pressure (altimeter): 30.06 inches Hg (1018.0 mb)
Winds: variable direction winds at 3 MPH (3 knots; 1.5 m/s)
Visibility: 6 or more miles (10+ km)
Ceiling: 18000 feet AGL
Clouds: scattered clouds at 3000 feet AGL
broken clouds at 18000 feet AGL
Weather: no significant weather observed at this time

METAR text: LTAI 200920Z 20003KT 150V310 9999 SCT030 BKN180 18/13 Q1018 NOSIG RMK RWY18C VRB02KT RWY36R VRB02KT RWY18L 21003KT 170V250
Conditions at: LTAI (ANTALYA (CIV/MIL, TR) observed 0920 UTC 20 March 2019
Temperature: 18.0°C (64°F)
Dewpoint: 13.0°C (55°F) [RH = 73%]
Pressure (altimeter): 30.06 inches Hg (1018.0 mb)
Winds: from the SSW (200 degrees) at 3 MPH (3 knots; 1.5 m/s)
Visibility: 6 or more miles (10+ km)
Ceiling: 18000 feet AGL
Clouds: scattered clouds at 3000 feet AGL
broken clouds at 18000 feet AGL
Weather: no significant weather observed at this time

METAR text: LTAI 200850Z VRB01KT 9999 SCT030 BKN180 18/12 Q1019 NOSIG RMK RWY18C 00000KT RWY36R 00000KT RWY18L 18003KT 120V230
Conditions at: LTAI (ANTALYA (CIV/MIL, TR) observed 0850 UTC 20 March 2019
Temperature: 18.0°C (64°F)
Dewpoint: 12.0°C (54°F) [RH = 68%]
Pressure (altimeter): 30.09 inches Hg (1019.0 mb)
Winds: variable direction winds at 1 MPH (1 knots; 0.5 m/s)
Visibility: 6 or more miles (10+ km)
Ceiling: 18000 feet AGL
Clouds: scattered clouds at 3000 feet AGL
broken clouds at 18000 feet AGL
Weather: no significant weather observed at this time

METAR text: LTAI 200820Z VRB01KT 9999 SCT030 BKN180 17/12 Q1019 NOSIG RMK RWY18C 00000KT RWY36R 00000KT RWY18L VRB02KT
Conditions at: LTAI (ANTALYA (CIV/MIL, TR) observed 0820 UTC 20 March 2019
Temperature: 17.0°C (63°F)
Dewpoint: 12.0°C (54°F) [RH = 72%]
Pressure (altimeter): 30.09 inches Hg (1019.0 mb)
Winds: variable direction winds at 1 MPH (1 knots; 0.5 m/s)
Visibility: 6 or more miles (10+ km)
Ceiling: 18000 feet AGL
Clouds: scattered clouds at 3000 feet AGL
broken clouds at 18000 feet AGL
Weather: no significant weather observed at this time

METAR text: LTAI 200750Z 00000KT 9999 SCT030 BKN180 17/12 Q1019 NOSIG RMK RWY18C VRB01KT RWY36R 33001KT RWY18L VRB01KT
Conditions at: LTAI (ANTALYA (CIV/MIL, TR) observed 0750 UTC 20 March 2019
Temperature: 17.0°C (63°F)
Dewpoint: 12.0°C (54°F) [RH = 72%]
Pressure (altimeter): 30.09 inches Hg (1019.0 mb)
Winds: calm
Visibility: 6 or more miles (10+ km)
Ceiling: 18000 feet AGL
Clouds: scattered clouds at 3000 feet AGL
broken clouds at 18000 feet AGL
Weather: no significant weather observed at this time

METAR text: LTAI 200720Z 02003KT 330V060 9999 SCT030 BKN180 16/11 Q1019 NOSIG RMK RWY18C VRB02KT RWY36R 01003KT 340V060 RWY18L VRB02KT
Conditions at: LTAI (ANTALYA (CIV/MIL, TR) observed 0720 UTC 20 March 2019
Temperature: 16.0°C (61°F)
Dewpoint: 11.0°C (52°F) [RH = 72%]
Pressure (altimeter): 30.09 inches Hg (1019.0 mb)
Winds: from the NNE (20 degrees) at 3 MPH (3 knots; 1.5 m/s)
Visibility: 6 or more miles (10+ km)
Ceiling: 18000 feet AGL
Clouds: scattered clouds at 3000 feet AGL
broken clouds at 18000 feet AGL
Weather: no significant weather observed at this time

METAR text: LTAI 200650Z 02003KT 350V050 9999 SCT030 BKN180 15/10 Q1019 NOSIG RMK RWY18C VRB02KT RWY36R 02003KT RWY18L VRB02KT
Conditions at: LTAI (ANTALYA (CIV/MIL, TR) observed 0650 UTC 20 March 2019
Temperature: 15.0°C (59°F)
Dewpoint: 10.0°C (50°F) [RH = 72%]
Pressure (altimeter): 30.09 inches Hg (1019.0 mb)
Winds: from the NNE (20 degrees) at 3 MPH (3 knots; 1.5 m/s)
Visibility: 6 or more miles (10+ km)
Ceiling: 18000 feet AGL
Clouds: scattered clouds at 3000 feet AGL
broken clouds at 18000 feet AGL
Weather: no significant weather observed at this time

METAR text: LTAI 200620Z 35002KT 9999 SCT030 BKN180 14/10 Q1019 NOSIG RMK RWY18C 35003KT RWY36R 36003KT RWY18L 00000KT
Conditions at: LTAI (ANTALYA (CIV/MIL, TR) observed 0620 UTC 20 March 2019
Temperature: 14.0°C (57°F)
Dewpoint: 10.0°C (50°F) [RH = 77%]
Pressure (altimeter): 30.09 inches Hg (1019.0 mb)
Winds: from the N (350 degrees) at 2 MPH (2 knots; 1.0 m/s)
Visibility: 6 or more miles (10+ km)
Ceiling: 18000 feet AGL
Clouds: scattered clouds at 3000 feet AGL
broken clouds at 18000 feet AGL
Weather: no significant weather observed at this time

METAR text: LTAI 200550Z 35003KT 9999 SCT030 BKN120 13/10 Q1018 NOSIG RMK RWY18C 35004KT 330V040 RWY36R 35003KT RWY18L VRB02KT
Conditions at: LTAI (ANTALYA (CIV/MIL, TR) observed 0550 UTC 20 March 2019
Temperature: 13.0°C (55°F)
Dewpoint: 10.0°C (50°F) [RH = 82%]
Pressure (altimeter): 30.06 inches Hg (1018.0 mb)
Winds: from the N (350 degrees) at 3 MPH (3 knots; 1.5 m/s)
Visibility: 6 or more miles (10+ km)
Ceiling: 12000 feet AGL
Clouds: scattered clouds at 3000 feet AGL
broken clouds at 12000 feet AGL
Weather: no significant weather observed at this time

METAR text: LTAI 200520Z 36003KT 9999 SCT030 12/09 Q1018 NOSIG RMK RWY18C 34004KT 310V010 RWY36R 35003KT RWY18L 01001KT
Conditions at: LTAI (ANTALYA (CIV/MIL, TR) observed 0520 UTC 20 March 2019
Temperature: 12.0°C (54°F)
Dewpoint: 9.0°C (48°F) [RH = 82%]
Pressure (altimeter): 30.06 inches Hg (1018.0 mb)
Winds: from the N (360 degrees) at 3 MPH (3 knots; 1.5 m/s)
Visibility: 6 or more miles (10+ km)
Ceiling: at least 12,000 feet AGL
Clouds: scattered clouds at 3000 feet AGL
Weather: no significant weather observed at this time

METAR text: LTAI 200450Z 36004KT 9999 SCT035 10/08 Q1018 NOSIG RMK RWY18C 34003KT RWY36R 35002KT RWY18L VRB02KT
Conditions at: LTAI (ANTALYA (CIV/MIL, TR) observed 0450 UTC 20 March 2019
Temperature: 10.0°C (50°F)
Dewpoint: 8.0°C (46°F) [RH = 87%]
Pressure (altimeter): 30.06 inches Hg (1018.0 mb)
Winds: from the N (360 degrees) at 5 MPH (4 knots; 2.1 m/s)
Visibility: 6 or more miles (10+ km)
Ceiling: at least 12,000 feet AGL
Clouds: scattered clouds at 3500 feet AGL
Weather: no significant weather observed at this time

METAR text: LTAI 200420Z 01003KT 9999 SCT030 09/08 Q1018 NOSIG RMK RWY18C VRB02KT RWY36R 33004KT RWY18L 31002KT
Conditions at: LTAI (ANTALYA (CIV/MIL, TR) observed 0420 UTC 20 March 2019
Temperature: 9.0°C (48°F)
Dewpoint: 8.0°C (46°F) [RH = 93%]
Pressure (altimeter): 30.06 inches Hg (1018.0 mb)
Winds: from the N (10 degrees) at 3 MPH (3 knots; 1.5 m/s)
Visibility: 6 or more miles (10+ km)
Ceiling: at least 12,000 feet AGL
Clouds: scattered clouds at 3000 feet AGL
Weather: no significant weather observed at this time

METAR text: LTAI 200350Z 36003KT 9999 SCT030 09/08 Q1018 NOSIG RMK RWY18C 35004KT RWY36R 34004KT RWY18L 01003KT
Conditions at: LTAI (ANTALYA (CIV/MIL, TR) observed 0350 UTC 20 March 2019
Temperature: 9.0°C (48°F)
Dewpoint: 8.0°C (46°F) [RH = 93%]
Pressure (altimeter): 30.06 inches Hg (1018.0 mb)
Winds: from the N (360 degrees) at 3 MPH (3 knots; 1.5 m/s)
Visibility: 6 or more miles (10+ km)
Ceiling: at least 12,000 feet AGL
Clouds: scattered clouds at 3000 feet AGL
Weather: no significant weather observed at this time

METAR text: LTAI 200320Z 35004KT 9999 SCT030 09/08 Q1017 NOSIG RMK RWY18C 34002KT RWY36R 33003KT RWY18L 00000KT
Conditions at: LTAI (ANTALYA (CIV/MIL, TR) observed 0320 UTC 20 March 2019
Temperature: 9.0°C (48°F)
Dewpoint: 8.0°C (46°F) [RH = 93%]
Pressure (altimeter): 30.03 inches Hg (1017.0 mb)
Winds: from the N (350 degrees) at 5 MPH (4 knots; 2.1 m/s)
Visibility: 6 or more miles (10+ km)
Ceiling: at least 12,000 feet AGL
Clouds: scattered clouds at 3000 feet AGL
Weather: no significant weather observed at this time

METAR text: LTAI 200250Z 01003KT 8000 SCT030 09/08 Q1017 NOSIG RMK RWY18C 01002KT RWY36R 01003KT RWY18L 03002KT
Conditions at: LTAI (ANTALYA (CIV/MIL, TR) observed 0250 UTC 20 March 2019
Temperature: 9.0°C (48°F)
Dewpoint: 8.0°C (46°F) [RH = 93%]
Pressure (altimeter): 30.03 inches Hg (1017.0 mb)
Winds: from the N (10 degrees) at 3 MPH (3 knots; 1.5 m/s)
Visibility: 5 miles ( 8 km)
Ceiling: at least 12,000 feet AGL
Clouds: scattered clouds at 3000 feet AGL
Weather: no significant weather observed at this time

METAR text: LTAI 200220Z 36004KT 8000 SCT030 10/08 Q1017 NOSIG RMK RWY18C 35004KT RWY36R 34003KT RWY18L 33002KT
Conditions at: LTAI (ANTALYA (CIV/MIL, TR) observed 0220 UTC 20 March 2019
Temperature: 10.0°C (50°F)
Dewpoint: 8.0°C (46°F) [RH = 87%]
Pressure (altimeter): 30.03 inches Hg (1017.0 mb)
Winds: from the N (360 degrees) at 5 MPH (4 knots; 2.1 m/s)
Visibility: 5 miles ( 8 km)
Ceiling: at least 12,000 feet AGL
Clouds: scattered clouds at 3000 feet AGL
Weather: no significant weather observed at this time

METAR text: LTAI 200150Z 35005KT 7000 SCT030 10/09 Q1017 NOSIG RMK RWY18C 35004KT RWY36R 35003KT RWY18L 34003KT 320V040
Conditions at: LTAI (ANTALYA (CIV/MIL, TR) observed 0150 UTC 20 March 2019
Temperature: 10.0°C (50°F)
Dewpoint: 9.0°C (48°F) [RH = 93%]
Pressure (altimeter): 30.03 inches Hg (1017.0 mb)
Winds: from the N (350 degrees) at 6 MPH (5 knots; 2.6 m/s)
Visibility: 4 miles ( 7 km)
Ceiling: at least 12,000 feet AGL
Clouds: scattered clouds at 3000 feet AGL
Weather: no significant weather observed at this time

METAR text: LTAI 200120Z 33004KT 8000 SCT030 10/09 Q1017 NOSIG RMK RWY18C 31003KT 270V330 RWY36R 30004KT 280V340 RWY18L 30003KT
Conditions at: LTAI (ANTALYA (CIV/MIL, TR) observed 0120 UTC 20 March 2019
Temperature: 10.0°C (50°F)
Dewpoint: 9.0°C (48°F) [RH = 93%]
Pressure (altimeter): 30.03 inches Hg (1017.0 mb)
Winds: from the NNW (330 degrees) at 5 MPH (4 knots; 2.1 m/s)
Visibility: 5 miles ( 8 km)
Ceiling: at least 12,000 feet AGL
Clouds: scattered clouds at 3000 feet AGL
Weather: no significant weather observed at this time

METAR text: LTAI 200050Z 03004KT 7000 SCT030 10/09 Q1017 NOSIG RMK RWY18C 36003KT 320V030 RWY36R 01002KT RWY18L 01004KT
Conditions at: LTAI (ANTALYA (CIV/MIL, TR) observed 0050 UTC 20 March 2019
Temperature: 10.0°C (50°F)
Dewpoint: 9.0°C (48°F) [RH = 93%]
Pressure (altimeter): 30.03 inches Hg (1017.0 mb)
Winds: from the NNE (30 degrees) at 5 MPH (4 knots; 2.1 m/s)
Visibility: 4 miles ( 7 km)
Ceiling: at least 12,000 feet AGL
Clouds: scattered clouds at 3000 feet AGL
Weather: no significant weather observed at this time

METAR text: LTAI 200020Z 02004KT 7000 SCT030 10/09 Q1017 NOSIG RMK RWY18C 01003KT RWY36R 03003KT RWY18L 01003KT
Conditions at: LTAI (ANTALYA (CIV/MIL, TR) observed 0020 UTC 20 March 2019
Temperature: 10.0°C (50°F)
Dewpoint: 9.0°C (48°F) [RH = 93%]
Pressure (altimeter): 30.03 inches Hg (1017.0 mb)
Winds: from the NNE (20 degrees) at 5 MPH (4 knots; 2.1 m/s)
Visibility: 4 miles ( 7 km)
Ceiling: at least 12,000 feet AGL
Clouds: scattered clouds at 3000 feet AGL
Weather: no significant weather observed at this time

METAR text: LTAI 192350Z 35004KT 7000 SCT030 11/10 Q1018 NOSIG RMK RWY18C 35003KT RWY36R 32003KT RWY18L VRB02KT
Conditions at: LTAI (ANTALYA (CIV/MIL, TR) observed 2350 UTC 19 March 2019
Temperature: 11.0°C (52°F)
Dewpoint: 10.0°C (50°F) [RH = 94%]
Pressure (altimeter): 30.06 inches Hg (1018.0 mb)
Winds: from the N (350 degrees) at 5 MPH (4 knots; 2.1 m/s)
Visibility: 4 miles ( 7 km)
Ceiling: at least 12,000 feet AGL
Clouds: scattered clouds at 3000 feet AGL
Weather: no significant weather observed at this time

METAR text: LTAI 192320Z VRB02KT 7000 SCT030 11/09 Q1018 NOSIG RMK RWY18C 32002KT RWY36R 26003KT RWY18L VRB02KT
Conditions at: LTAI (ANTALYA (CIV/MIL, TR) observed 2320 UTC 19 March 2019
Temperature: 11.0°C (52°F)
Dewpoint: 9.0°C (48°F) [RH = 87%]
Pressure (altimeter): 30.06 inches Hg (1018.0 mb)
Winds: variable direction winds at 2 MPH (2 knots; 1.0 m/s)
Visibility: 4 miles ( 7 km)
Ceiling: at least 12,000 feet AGL
Clouds: scattered clouds at 3000 feet AGL
Weather: no significant weather observed at this time

METAR text: LTAI 192250Z VRB02KT 8000 SCT030 11/10 Q1018 NOSIG RMK RWY18C 33003KT RWY36R 34003KT 290V350 RWY18L 31002KT
Conditions at: LTAI (ANTALYA (CIV/MIL, TR) observed 2250 UTC 19 March 2019
Temperature: 11.0°C (52°F)
Dewpoint: 10.0°C (50°F) [RH = 94%]
Pressure (altimeter): 30.06 inches Hg (1018.0 mb)
Winds: variable direction winds at 2 MPH (2 knots; 1.0 m/s)
Visibility: 5 miles ( 8 km)
Ceiling: at least 12,000 feet AGL
Clouds: scattered clouds at 3000 feet AGL
Weather: no significant weather observed at this time

METAR text: LTAI 192220Z 36004KT 8000 SCT030 11/10 Q1018 NOSIG RMK RWY18C 34004KT RWY36R 35004KT RWY18L 01002KT
Conditions at: LTAI (ANTALYA (CIV/MIL, TR) observed 2220 UTC 19 March 2019
Temperature: 11.0°C (52°F)
Dewpoint: 10.0°C (50°F) [RH = 94%]
Pressure (altimeter): 30.06 inches Hg (1018.0 mb)
Winds: from the N (360 degrees) at 5 MPH (4 knots; 2.1 m/s)
Visibility: 5 miles ( 8 km)
Ceiling: at least 12,000 feet AGL
Clouds: scattered clouds at 3000 feet AGL
Weather: no significant weather observed at this time

METAR text: LTAI 192150Z 35005KT 7000 SCT030 12/11 Q1018 NOSIG RMK RWY18C 35005KT RWY36R 35005KT RWY18L 34004KT
Conditions at: LTAI (ANTALYA (CIV/MIL, TR) observed 2150 UTC 19 March 2019
Temperature: 12.0°C (54°F)
Dewpoint: 11.0°C (52°F) [RH = 94%]
Pressure (altimeter): 30.06 inches Hg (1018.0 mb)
Winds: from the N (350 degrees) at 6 MPH (5 knots; 2.6 m/s)
Visibility: 4 miles ( 7 km)
Ceiling: at least 12,000 feet AGL
Clouds: scattered clouds at 3000 feet AGL
Weather: no significant weather observed at this time

METAR text: LTAI 192120Z 35004KT 7000 SCT030 12/11 Q1018 NOSIG RMK RWY18C 35004KT RWY36R 33003KT RWY18L 31003KT
Conditions at: LTAI (ANTALYA (CIV/MIL, TR) observed 2120 UTC 19 March 2019
Temperature: 12.0°C (54°F)
Dewpoint: 11.0°C (52°F) [RH = 94%]
Pressure (altimeter): 30.06 inches Hg (1018.0 mb)
Winds: from the N (350 degrees) at 5 MPH (4 knots; 2.1 m/s)
Visibility: 4 miles ( 7 km)
Ceiling: at least 12,000 feet AGL
Clouds: scattered clouds at 3000 feet AGL
Weather: no significant weather observed at this time

METAR text: LTAI 192050Z VRB02KT 6000 SCT030 12/11 Q1018 NOSIG RMK RWY18C 31002KT RWY36R 30002KT RWY18L 30002KT
Conditions at: LTAI (ANTALYA (CIV/MIL, TR) observed 2050 UTC 19 March 2019
Temperature: 12.0°C (54°F)
Dewpoint: 11.0°C (52°F) [RH = 94%]
Pressure (altimeter): 30.06 inches Hg (1018.0 mb)
Winds: variable direction winds at 2 MPH (2 knots; 1.0 m/s)
Visibility: 4 miles ( 6 km)
Ceiling: at least 12,000 feet AGL
Clouds: scattered clouds at 3000 feet AGL
Weather: no significant weather observed at this time

METAR text: LTAI 192020Z 34003KT 6000 SCT030 13/11 Q1018 NOSIG RMK RWY18C 32001KT RWY36R 34003KT RWY18L 30002KT
Conditions at: LTAI (ANTALYA (CIV/MIL, TR) observed 2020 UTC 19 March 2019
Temperature: 13.0°C (55°F)
Dewpoint: 11.0°C (52°F) [RH = 88%]
Pressure (altimeter): 30.06 inches Hg (1018.0 mb)
Winds: from the NNW (340 degrees) at 3 MPH (3 knots; 1.5 m/s)
Visibility: 4 miles ( 6 km)
Ceiling: at least 12,000 feet AGL
Clouds: scattered clouds at 3000 feet AGL
Weather: no significant weather observed at this time

METAR text: LTAI 191950Z 33003KT 7000 SCT030 13/11 Q1018 NOSIG RMK RWY18C 33004KT RWY36R 33003KT RWY18L 35002KT
Conditions at: LTAI (ANTALYA (CIV/MIL, TR) observed 1950 UTC 19 March 2019
Temperature: 13.0°C (55°F)
Dewpoint: 11.0°C (52°F) [RH = 88%]
Pressure (altimeter): 30.06 inches Hg (1018.0 mb)
Winds: from the NNW (330 degrees) at 3 MPH (3 knots; 1.5 m/s)
Visibility: 4 miles ( 7 km)
Ceiling: at least 12,000 feet AGL
Clouds: scattered clouds at 3000 feet AGL
Weather: no significant weather observed at this time

METAR text: LTAI 191920Z VRB02KT 8000 SCT030 13/11 Q1018 NOSIG RMK RWY18C 34003KT RWY36R 00000KT RWY18L 31003KT
Conditions at: LTAI (ANTALYA (CIV/MIL, TR) observed 1920 UTC 19 March 2019
Temperature: 13.0°C (55°F)
Dewpoint: 11.0°C (52°F) [RH = 88%]
Pressure (altimeter): 30.06 inches Hg (1018.0 mb)
Winds: variable direction winds at 2 MPH (2 knots; 1.0 m/s)
Visibility: 5 miles ( 8 km)
Ceiling: at least 12,000 feet AGL
Clouds: scattered clouds at 3000 feet AGL
Weather: no significant weather observed at this time

METAR text: LTAI 191850Z VRB01KT 8000 SCT030 14/11 Q1018 NOSIG RMK RWY18C 33003KT RWY36R 36002KT RWY18L VRB01KT
Conditions at: LTAI (ANTALYA (CIV/MIL, TR) observed 1850 UTC 19 March 2019
Temperature: 14.0°C (57°F)
Dewpoint: 11.0°C (52°F) [RH = 82%]
Pressure (altimeter): 30.06 inches Hg (1018.0 mb)
Winds: variable direction winds at 1 MPH (1 knots; 0.5 m/s)
Visibility: 5 miles ( 8 km)
Ceiling: at least 12,000 feet AGL
Clouds: scattered clouds at 3000 feet AGL
Weather: no significant weather observed at this time

METAR text: LTAI 191820Z 36002KT 8000 SCT030 14/11 Q1018 NOSIG RMK RWY18C 33003KT RWY36R 36003KT RWY18L 36001KT
Conditions at: LTAI (ANTALYA (CIV/MIL, TR) observed 1820 UTC 19 March 2019
Temperature: 14.0°C (57°F)
Dewpoint: 11.0°C (52°F) [RH = 82%]
Pressure (altimeter): 30.06 inches Hg (1018.0 mb)
Winds: from the N (360 degrees) at 2 MPH (2 knots; 1.0 m/s)
Visibility: 5 miles ( 8 km)
Ceiling: at least 12,000 feet AGL
Clouds: scattered clouds at 3000 feet AGL
Weather: no significant weather observed at this time

METAR text: LTAI 191750Z 36003KT 9999 SCT030 15/12 Q1018 NOSIG RMK RWY18C 36003KT 350V050 RWY36R 36005KT RWY18L 01004KT
Conditions at: LTAI (ANTALYA (CIV/MIL, TR) observed 1750 UTC 19 March 2019
Temperature: 15.0°C (59°F)
Dewpoint: 12.0°C (54°F) [RH = 82%]
Pressure (altimeter): 30.06 inches Hg (1018.0 mb)
Winds: from the N (360 degrees) at 3 MPH (3 knots; 1.5 m/s)
Visibility: 6 or more miles (10+ km)
Ceiling: at least 12,000 feet AGL
Clouds: scattered clouds at 3000 feet AGL
Weather: no significant weather observed at this time

METAR text: LTAI 191720Z 00000KT 9999 SCT030 15/12 Q1018 NOSIG RMK RWY18C VRB02KT RWY36R 00000KT RWY18L 01002KT
Conditions at: LTAI (ANTALYA (CIV/MIL, TR) observed 1720 UTC 19 March 2019
Temperature: 15.0°C (59°F)
Dewpoint: 12.0°C (54°F) [RH = 82%]
Pressure (altimeter): 30.06 inches Hg (1018.0 mb)
Winds: calm
Visibility: 6 or more miles (10+ km)
Ceiling: at least 12,000 feet AGL
Clouds: scattered clouds at 3000 feet AGL
Weather: no significant weather observed at this time

METAR text: LTAI 191650Z 09002KT 9999 SCT030 15/12 Q1018 NOSIG RMK RWY18C 14003KT 090V220 RWY36R 00000KT RWY18L 13002KT
Conditions at: LTAI (ANTALYA (CIV/MIL, TR) observed 1650 UTC 19 March 2019
Temperature: 15.0°C (59°F)
Dewpoint: 12.0°C (54°F) [RH = 82%]
Pressure (altimeter): 30.06 inches Hg (1018.0 mb)
Winds: from the E (90 degrees) at 2 MPH (2 knots; 1.0 m/s)
Visibility: 6 or more miles (10+ km)
Ceiling: at least 12,000 feet AGL
Clouds: scattered clouds at 3000 feet AGL
Weather: no significant weather observed at this time

METAR text: LTAI 191620Z 12003KT 9999 SCT030 15/12 Q1018 NOSIG RMK RWY18C 13004KT RWY36R 13001KT RWY18L 15002KT
Conditions at: LTAI (ANTALYA (CIV/MIL, TR) observed 1620 UTC 19 March 2019
Temperature: 15.0°C (59°F)
Dewpoint: 12.0°C (54°F) [RH = 82%]
Pressure (altimeter): 30.06 inches Hg (1018.0 mb)
Winds: from the ESE (120 degrees) at 3 MPH (3 knots; 1.5 m/s)
Visibility: 6 or more miles (10+ km)
Ceiling: at least 12,000 feet AGL
Clouds: scattered clouds at 3000 feet AGL
Weather: no significant weather observed at this time

METAR text: LTAI 191550Z 14004KT 9999 SCT030 16/12 Q1018 NOSIG RMK RWY18C 13004KT 060V180 RWY36R 13004KT RWY18L 14004KT
Conditions at: LTAI (ANTALYA (CIV/MIL, TR) observed 1550 UTC 19 March 2019
Temperature: 16.0°C (61°F)
Dewpoint: 12.0°C (54°F) [RH = 77%]
Pressure (altimeter): 30.06 inches Hg (1018.0 mb)
Winds: from the SE (140 degrees) at 5 MPH (4 knots; 2.1 m/s)
Visibility: 6 or more miles (10+ km)
Ceiling: at least 12,000 feet AGL
Clouds: scattered clouds at 3000 feet AGL
Weather: no significant weather observed at this time

METAR text: LTAI 191520Z 13004KT 9999 SCT030 16/12 Q1018 NOSIG RMK RWY18C 13005KT 110V170 RWY36R 13005KT 100V160 RWY18L 13004KT 090V160
Conditions at: LTAI (ANTALYA (CIV/MIL, TR) observed 1520 UTC 19 March 2019
Temperature: 16.0°C (61°F)
Dewpoint: 12.0°C (54°F) [RH = 77%]
Pressure (altimeter): 30.06 inches Hg (1018.0 mb)
Winds: from the SE (130 degrees) at 5 MPH (4 knots; 2.1 m/s)
Visibility: 6 or more miles (10+ km)
Ceiling: at least 12,000 feet AGL
Clouds: scattered clouds at 3000 feet AGL
Weather: no significant weather observed at this time

METAR text: LTAI 191450Z 13005KT 9999 SCT030 16/13 Q1017 NOSIG RMK RWY18C 13006KT 100V160 RWY36R 13006KT RWY18L 14005KT
Conditions at: LTAI (ANTALYA (CIV/MIL, TR) observed 1450 UTC 19 March 2019
Temperature: 16.0°C (61°F)
Dewpoint: 13.0°C (55°F) [RH = 82%]
Pressure (altimeter): 30.03 inches Hg (1017.0 mb)
Winds: from the SE (130 degrees) at 6 MPH (5 knots; 2.6 m/s)
Visibility: 6 or more miles (10+ km)
Ceiling: at least 12,000 feet AGL
Clouds: scattered clouds at 3000 feet AGL
Weather: no significant weather observed at this time

METAR text: LTAI 191420Z 15006KT 9999 SCT030 16/12 Q1017 NOSIG RMK RWY18C 12006KT RWY36R 15007KT RWY18L 13005KT
Conditions at: LTAI (ANTALYA (CIV/MIL, TR) observed 1420 UTC 19 March 2019
Temperature: 16.0°C (61°F)
Dewpoint: 12.0°C (54°F) [RH = 77%]
Pressure (altimeter): 30.03 inches Hg (1017.0 mb)
Winds: from the SSE (150 degrees) at 7 MPH (6 knots; 3.1 m/s)
Visibility: 6 or more miles (10+ km)
Ceiling: at least 12,000 feet AGL
Clouds: scattered clouds at 3000 feet AGL
Weather: no significant weather observed at this time

METAR text: LTAI 191350Z 14007KT 9999 SCT030 16/12 Q1017 NOSIG RMK RWY18C 15007KT 100V180 RWY36R 13007KT RWY18L 15007KT
Conditions at: LTAI (ANTALYA (CIV/MIL, TR) observed 1350 UTC 19 March 2019
Temperature: 16.0°C (61°F)
Dewpoint: 12.0°C (54°F) [RH = 77%]
Pressure (altimeter): 30.03 inches Hg (1017.0 mb)
Winds: from the SE (140 degrees) at 8 MPH (7 knots; 3.6 m/s)
Visibility: 6 or more miles (10+ km)
Ceiling: at least 12,000 feet AGL
Clouds: scattered clouds at 3000 feet AGL
Weather: no significant weather observed at this time

METAR text: LTAI 191320Z 16007KT 130V190 9999 SCT030 18/13 Q1017 NOSIG RMK RWY18C 15008KT 120V180 RWY36R 15008KT 110V170 RWY18L 15007KT 120V190
Conditions at: LTAI (ANTALYA (CIV/MIL, TR) observed 1320 UTC 19 March 2019
Temperature: 18.0°C (64°F)
Dewpoint: 13.0°C (55°F) [RH = 73%]
Pressure (altimeter): 30.03 inches Hg (1017.0 mb)
Winds: from the SSE (160 degrees) at 8 MPH (7 knots; 3.6 m/s)
Visibility: 6 or more miles (10+ km)
Ceiling: at least 12,000 feet AGL
Clouds: scattered clouds at 3000 feet AGL
Weather: no significant weather observed at this time

METAR text: LTAI 191250Z 16008KT 9999 SCT030 18/13 Q1017 NOSIG RMK RWY18C 15008KT RWY36R 14009KT RWY18L 16007KT 130V210
Conditions at: LTAI (ANTALYA (CIV/MIL, TR) observed 1250 UTC 19 March 2019
Temperature: 18.0°C (64°F)
Dewpoint: 13.0°C (55°F) [RH = 73%]
Pressure (altimeter): 30.03 inches Hg (1017.0 mb)
Winds: from the SSE (160 degrees) at 9 MPH (8 knots; 4.1 m/s)
Visibility: 6 or more miles (10+ km)
Ceiling: at least 12,000 feet AGL
Clouds: scattered clouds at 3000 feet AGL
Weather: no significant weather observed at this time

METAR text: LTAI 191220Z 16009KT 120V190 9999 SCT030 18/13 Q1017 NOSIG RMK RWY18C 15009KT RWY36R 15010KT RWY18L 16008KT 130V200
Conditions at: LTAI (ANTALYA (CIV/MIL, TR) observed 1220 UTC 19 March 2019
Temperature: 18.0°C (64°F)
Dewpoint: 13.0°C (55°F) [RH = 73%]
Pressure (altimeter): 30.03 inches Hg (1017.0 mb)
Winds: from the SSE (160 degrees) at 10 MPH (9 knots; 4.6 m/s)
Visibility: 6 or more miles (10+ km)
Ceiling: at least 12,000 feet AGL
Clouds: scattered clouds at 3000 feet AGL
Weather: no significant weather observed at this time

METAR text: LTAI 191150Z 15009KT 110V180 9999 SCT030 18/13 Q1017 NOSIG RMK RWY18C 16009KT 130V190 RWY36R 16009KT RWY18L 16009KT 130V200
Conditions at: LTAI (ANTALYA (CIV/MIL, TR) observed 1150 UTC 19 March 2019
Temperature: 18.0°C (64°F)
Dewpoint: 13.0°C (55°F) [RH = 73%]
Pressure (altimeter): 30.03 inches Hg (1017.0 mb)
Winds: from the SSE (150 degrees) at 10 MPH (9 knots; 4.6 m/s)
Visibility: 6 or more miles (10+ km)
Ceiling: at least 12,000 feet AGL
Clouds: scattered clouds at 3000 feet AGL
Weather: no significant weather observed at this time

METAR text: LTAI 191120Z 16008KT 9999 SCT030 18/13 Q1017 NOSIG RMK RWY18C 17009KT 120V200 RWY36R 16009KT RWY18L 16008KT 130V200
Conditions at: LTAI (ANTALYA (CIV/MIL, TR) observed 1120 UTC 19 March 2019
Temperature: 18.0°C (64°F)
Dewpoint: 13.0°C (55°F) [RH = 73%]
Pressure (altimeter): 30.03 inches Hg (1017.0 mb)
Winds: from the SSE (160 degrees) at 9 MPH (8 knots; 4.1 m/s)
Visibility: 6 or more miles (10+ km)
Ceiling: at least 12,000 feet AGL
Clouds: scattered clouds at 3000 feet AGL
Weather: no significant weather observed at this time

METAR text: LTAI 191050Z 17010KT 9999 SCT030 17/14 Q1018 NOSIG RMK RWY18C 17010KT 140V200 RWY36R 16010KT RWY18L 16009KT
Conditions at: LTAI (ANTALYA (CIV/MIL, TR) observed 1050 UTC 19 March 2019
Temperature: 17.0°C (63°F)
Dewpoint: 14.0°C (57°F) [RH = 82%]
Pressure (altimeter): 30.06 inches Hg (1018.0 mb)
Winds: from the S (170 degrees) at 12 MPH (10 knots; 5.1 m/s)
Visibility: 6 or more miles (10+ km)
Ceiling: at least 12,000 feet AGL
Clouds: scattered clouds at 3000 feet AGL
Weather: no significant weather observed at this time

METAR text: LTAI 191020Z 19011KT 9999 SCT030 17/14 Q1018 NOSIG RMK RWY18C 17010KT RWY36R 17011KT RWY18L 18010KT
Conditions at: LTAI (ANTALYA (CIV/MIL, TR) observed 1020 UTC 19 March 2019
Temperature: 17.0°C (63°F)
Dewpoint: 14.0°C (57°F) [RH = 82%]
Pressure (altimeter): 30.06 inches Hg (1018.0 mb)
Winds: from the S (190 degrees) at 13 MPH (11 knots; 5.7 m/s)
Visibility: 6 or more miles (10+ km)
Ceiling: at least 12,000 feet AGL
Clouds: scattered clouds at 3000 feet AGL
Weather: no significant weather observed at this time

METAR text: LTAI 190950Z 19009KT 150V210 9999 FEW030 SCT200 17/13 Q1018 NOSIG RMK RWY18C 18009KT RWY36R 18009KT 150V210 RWY18L 19008KT 140V210
Conditions at: LTAI (ANTALYA (CIV/MIL, TR) observed 0950 UTC 19 March 2019
Temperature: 17.0°C (63°F)
Dewpoint: 13.0°C (55°F) [RH = 77%]
Pressure (altimeter): 30.06 inches Hg (1018.0 mb)
Winds: from the S (190 degrees) at 10 MPH (9 knots; 4.6 m/s)
Visibility: 6 or more miles (10+ km)
Ceiling: at least 12,000 feet AGL
Clouds: few clouds at 3000 feet AGL
scattered clouds at 20000 feet AGL
Weather: no significant weather observed at this time

METAR text: LTAI 190920Z 18008KT 9999 SCT025 18/13 Q1018 NOSIG RMK RWY18C 17009KT 140V200 RWY36R 19008KT RWY18L 20009KT
Conditions at: LTAI (ANTALYA (CIV/MIL, TR) observed 0920 UTC 19 March 2019
Temperature: 18.0°C (64°F)
Dewpoint: 13.0°C (55°F) [RH = 73%]
Pressure (altimeter): 30.06 inches Hg (1018.0 mb)
Winds: from the S (180 degrees) at 9 MPH (8 knots; 4.1 m/s)
Visibility: 6 or more miles (10+ km)
Ceiling: at least 12,000 feet AGL
Clouds: scattered clouds at 2500 feet AGL
Weather: no significant weather observed at this time

METAR text: LTAI 190850Z 22003KT 9999 SCT025 18/12 Q1018 NOSIG RMK RWY18C VRB03KT RWY36R 16005KT 110V220 RWY18L VRB03KT
Conditions at: LTAI (ANTALYA (CIV/MIL, TR) observed 0850 UTC 19 March 2019
Temperature: 18.0°C (64°F)
Dewpoint: 12.0°C (54°F) [RH = 68%]
Pressure (altimeter): 30.06 inches Hg (1018.0 mb)
Winds: from the SW (220 degrees) at 3 MPH (3 knots; 1.5 m/s)
Visibility: 6 or more miles (10+ km)
Ceiling: at least 12,000 feet AGL
Clouds: scattered clouds at 2500 feet AGL
Weather: no significant weather observed at this time

METAR text: LTAI 190820Z 21003KT 170V280 9999 SCT025 18/12 Q1018 NOSIG RMK RWY18C VRB01KT RWY36R 04001KT RWY18L VRB03KT
Conditions at: LTAI (ANTALYA (CIV/MIL, TR) observed 0820 UTC 19 March 2019
Temperature: 18.0°C (64°F)
Dewpoint: 12.0°C (54°F) [RH = 68%]
Pressure (altimeter): 30.06 inches Hg (1018.0 mb)
Winds: from the SSW (210 degrees) at 3 MPH (3 knots; 1.5 m/s)
Visibility: 6 or more miles (10+ km)
Ceiling: at least 12,000 feet AGL
Clouds: scattered clouds at 2500 feet AGL
Weather: no significant weather observed at this time

METAR text: LTAI 190750Z VRB01KT 9999 SCT025 17/11 Q1019 NOSIG RMK RWY18C 16003KT 070V220 RWY36R 00000KT RWY18L 20003KT 160V230
Conditions at: LTAI (ANTALYA (CIV/MIL, TR) observed 0750 UTC 19 March 2019
Temperature: 17.0°C (63°F)
Dewpoint: 11.0°C (52°F) [RH = 68%]
Pressure (altimeter): 30.09 inches Hg (1019.0 mb)
Winds: variable direction winds at 1 MPH (1 knots; 0.5 m/s)
Visibility: 6 or more miles (10+ km)
Ceiling: at least 12,000 feet AGL
Clouds: scattered clouds at 2500 feet AGL
Weather: no significant weather observed at this time

METAR text: LTAI 190720Z VRB02KT 9999 SCT025 17/12 Q1019 NOSIG RMK RWY18C 00000KT RWY36R VRB02KT RWY18L VRB02KT
Conditions at: LTAI (ANTALYA (CIV/MIL, TR) observed 0720 UTC 19 March 2019
Temperature: 17.0°C (63°F)
Dewpoint: 12.0°C (54°F) [RH = 72%]
Pressure (altimeter): 30.09 inches Hg (1019.0 mb)
Winds: variable direction winds at 2 MPH (2 knots; 1.0 m/s)
Visibility: 6 or more miles (10+ km)
Ceiling: at least 12,000 feet AGL
Clouds: scattered clouds at 2500 feet AGL
Weather: no significant weather observed at this time

METAR text: LTAI 190650Z 02003KT 9999 SCT025 16/10 Q1019 NOSIG RMK RWY18C 01003KT 340V050 RWY36R 36004KT RWY18L 02004KT 340V050
Conditions at: LTAI (ANTALYA (CIV/MIL, TR) observed 0650 UTC 19 March 2019
Temperature: 16.0°C (61°F)
Dewpoint: 10.0°C (50°F) [RH = 68%]
Pressure (altimeter): 30.09 inches Hg (1019.0 mb)
Winds: from the NNE (20 degrees) at 3 MPH (3 knots; 1.5 m/s)
Visibility: 6 or more miles (10+ km)
Ceiling: at least 12,000 feet AGL
Clouds: scattered clouds at 2500 feet AGL
Weather: no significant weather observed at this time

METAR text: LTAI 190620Z 01003KT 9999 SCT025 15/10 Q1019 NOSIG RMK RWY18C 00000KT RWY36R 00000KT RWY18L 01003KT 330V040
Conditions at: LTAI (ANTALYA (CIV/MIL, TR) observed 0620 UTC 19 March 2019
Temperature: 15.0°C (59°F)
Dewpoint: 10.0°C (50°F) [RH = 72%]
Pressure (altimeter): 30.09 inches Hg (1019.0 mb)
Winds: from the N (10 degrees) at 3 MPH (3 knots; 1.5 m/s)
Visibility: 6 or more miles (10+ km)
Ceiling: at least 12,000 feet AGL
Clouds: scattered clouds at 2500 feet AGL
Weather: no significant weather observed at this time

METAR text: LTAI 190550Z VRB01KT 9999 SCT025 14/10 Q1019 NOSIG RMK RWY18C 36002KT RWY36R VRB02KT RWY18L 34003KT
Conditions at: LTAI (ANTALYA (CIV/MIL, TR) observed 0550 UTC 19 March 2019
Temperature: 14.0°C (57°F)
Dewpoint: 10.0°C (50°F) [RH = 77%]
Pressure (altimeter): 30.09 inches Hg (1019.0 mb)
Winds: variable direction winds at 1 MPH (1 knots; 0.5 m/s)
Visibility: 6 or more miles (10+ km)
Ceiling: at least 12,000 feet AGL
Clouds: scattered clouds at 2500 feet AGL
Weather: no significant weather observed at this time

METAR text: LTAI 190520Z 36004KT 9999 SCT025 12/09 Q1019 NOSIG RMK RWY18C 00000KT RWY36R VRB02KT RWY18L 32003KT
Conditions at: LTAI (ANTALYA (CIV/MIL, TR) observed 0520 UTC 19 March 2019
Temperature: 12.0°C (54°F)
Dewpoint: 9.0°C (48°F) [RH = 82%]
Pressure (altimeter): 30.09 inches Hg (1019.0 mb)
Winds: from the N (360 degrees) at 5 MPH (4 knots; 2.1 m/s)
Visibility: 6 or more miles (10+ km)
Ceiling: at least 12,000 feet AGL
Clouds: scattered clouds at 2500 feet AGL
Weather: no significant weather observed at this time

METAR text: LTAI 190450Z 01002KT 9999 FEW011 SCT025 09/08 Q1019 NOSIG RMK RWY18C 33003KT 300V360 RWY36R 35004KT RWY18L 33003KT
Conditions at: LTAI (ANTALYA (CIV/MIL, TR) observed 0450 UTC 19 March 2019
Temperature: 9.0°C (48°F)
Dewpoint: 8.0°C (46°F) [RH = 93%]
Pressure (altimeter): 30.09 inches Hg (1019.0 mb)
Winds: from the N (10 degrees) at 2 MPH (2 knots; 1.0 m/s)
Visibility: 6 or more miles (10+ km)
Ceiling: at least 12,000 feet AGL
Clouds: few clouds at 1100 feet AGL
scattered clouds at 2500 feet AGL
Weather: no significant weather observed at this time

METAR text: LTAI 190420Z 35005KT 9999 FEW010 SCT030 09/08 Q1018 NOSIG RMK RWY18C 34004KT RWY36R VRB02KT RWY18L 32005KT 310V010
Conditions at: LTAI (ANTALYA (CIV/MIL, TR) observed 0420 UTC 19 March 2019
Temperature: 9.0°C (48°F)
Dewpoint: 8.0°C (46°F) [RH = 93%]
Pressure (altimeter): 30.06 inches Hg (1018.0 mb)
Winds: from the N (350 degrees) at 6 MPH (5 knots; 2.6 m/s)
Visibility: 6 or more miles (10+ km)
Ceiling: at least 12,000 feet AGL
Clouds: few clouds at 1000 feet AGL
scattered clouds at 3000 feet AGL
Weather: no significant weather observed at this time

METAR text: LTAI 190350Z 33004KT 9999 FEW025 09/08 Q1018 NOSIG RMK RWY18C 32002KT RWY36R 33005KT RWY18L 29002KT
Conditions at: LTAI (ANTALYA (CIV/MIL, TR) observed 0350 UTC 19 March 2019
Temperature: 9.0°C (48°F)
Dewpoint: 8.0°C (46°F) [RH = 93%]
Pressure (altimeter): 30.06 inches Hg (1018.0 mb)
Winds: from the NNW (330 degrees) at 5 MPH (4 knots; 2.1 m/s)
Visibility: 6 or more miles (10+ km)
Ceiling: at least 12,000 feet AGL
Clouds: few clouds at 2500 feet AGL
Weather: no significant weather observed at this time

METAR text: LTAI 190320Z VRB02KT CAVOK 09/08 Q1018 NOSIG RMK RWY18C 33004KT RWY36R VRB04KT RWY18L 00000KT
Conditions at: LTAI (ANTALYA (CIV/MIL, TR) observed 0320 UTC 19 March 2019
Temperature: 9.0°C (48°F)
Dewpoint: 8.0°C (46°F) [RH = 93%]
Pressure (altimeter): 30.06 inches Hg (1018.0 mb)
Winds: variable direction winds at 2 MPH (2 knots; 1.0 m/s)
Visibility: 6 or more miles (10+ km)
Ceiling: ceiling and visibility are OK
Clouds: unknown
Weather: no significant weather observed at this time

Forecast for: LTAI (ANTALYA (CIV/MIL, TR)
Text: TAF LTAI 201040Z 2012/2112 17010KT 9999 FEW030 BKN100
Forecast period: 1200 to 1500 UTC 20 March 2019
Forecast type: FROM: standard forecast or significant change
Winds: from the S (170 degrees) at 12 MPH (10 knots; 5.1 m/s)
Visibility: 6 or more miles 10+ km)
Ceiling: 10000 feet AGL
Clouds: few clouds at 3000 feet AGL
broken clouds at 10000 feet AGL
Weather: no significant weather forecast for this period
Text: BECMG 2015/2018 34006KT
Forecast period: 1500 UTC 20 March 2019 to 0900 UTC 21 March 2019
Forecast type: BECOMING: Conditions expected to become as follows by 1800 UTC 20 March 2019
Winds: from the NNW (340 degrees) at 7 MPH (6 knots; 3.1 m/s)
Visibility: 6 or more miles 10+ km)
Ceiling: 10000 feet AGL
Clouds: few clouds at 3000 feet AGL
broken clouds at 10000 feet AGL
Weather: no significant weather forecast for this period
Text: BECMG 2109/2111 18010KT
Forecast period: 0900 to 1200 UTC 21 March 2019
Forecast type: BECOMING: Conditions expected to become as follows by 1100 UTC 21 March 2019
Winds: from the S (180 degrees) at 12 MPH (10 knots; 5.1 m/s)
Visibility: 6 or more miles 10+ km)
Ceiling: 10000 feet AGL
Clouds: few clouds at 3000 feet AGL
broken clouds at 10000 feet AGL
Weather: no significant weather forecast for this period